sensor_id;sensor_type;location;lat;lon;timestamp;P1;durP1;ratioP1;P2;durP2;ratioP2
64686;SDS011;51113;53.646;-113.674;2023-07-02T00:00:46;3.15;;;1.30;;
64686;SDS011;51113;53.646;-113.674;2023-07-02T00:03:15;2.70;;;1.20;;
64686;SDS011;51113;53.646;-113.674;2023-07-02T00:05:44;6.10;;;1.20;;
64686;SDS011;51113;53.646;-113.674;2023-07-02T00:08:12;2.00;;;1.10;;
64686;SDS011;51113;53.646;-113.674;2023-07-02T00:10:41;4.28;;;1.50;;
64686;SDS011;51113;53.646;-113.674;2023-07-02T00:13:12;2.72;;;1.73;;
64686;SDS011;51113;53.646;-113.674;2023-07-02T00:15:41;2.60;;;1.60;;
64686;SDS011;51113;53.646;-113.674;2023-07-02T00:18:10;2.45;;;1.60;;
64686;SDS011;51113;53.646;-113.674;2023-07-02T00:20:38;1.77;;;1.23;;
64686;SDS011;51113;53.646;-113.674;2023-07-02T00:23:09;3.72;;;1.60;;
64686;SDS011;51113;53.646;-113.674;2023-07-02T00:25:38;2.28;;;1.60;;
64686;SDS011;51113;53.646;-113.674;2023-07-02T00:28:06;2.17;;;1.30;;
64686;SDS011;51113;53.646;-113.674;2023-07-02T00:30:35;3.53;;;1.50;;
64686;SDS011;51113;53.646;-113.674;2023-07-02T00:33:04;4.80;;;1.90;;
64686;SDS011;51113;53.646;-113.674;2023-07-02T00:35:32;8.10;;;2.30;;
64686;SDS011;51113;53.646;-113.674;2023-07-02T00:38:01;3.92;;;2.20;;
64686;SDS011;51113;53.646;-113.674;2023-07-02T00:40:30;3.78;;;1.83;;
64686;SDS011;51113;53.646;-113.674;2023-07-02T00:42:58;3.30;;;1.90;;
64686;SDS011;51113;53.646;-113.674;2023-07-02T00:45:27;2.00;;;1.30;;
64686;SDS011;51113;53.646;-113.674;2023-07-02T00:47:56;1.90;;;1.00;;
64686;SDS011;51113;53.646;-113.674;2023-07-02T00:50:25;1.77;;;1.10;;
64686;SDS011;51113;53.646;-113.674;2023-07-02T00:52:54;11.07;;;1.30;;
64686;SDS011;51113;53.646;-113.674;2023-07-02T00:55:23;6.63;;;1.50;;
64686;SDS011;51113;53.646;-113.674;2023-07-02T00:57:52;3.80;;;1.45;;
64686;SDS011;51113;53.646;-113.674;2023-07-02T01:00:21;2.83;;;1.40;;
64686;SDS011;51113;53.646;-113.674;2023-07-02T01:02:53;3.17;;;1.20;;
64686;SDS011;51113;53.646;-113.674;2023-07-02T01:05:27;2.80;;;1.30;;
64686;SDS011;51113;53.646;-113.674;2023-07-02T01:08:03;2.47;;;1.20;;
64686;SDS011;51113;53.646;-113.674;2023-07-02T01:10:32;1.92;;;1.10;;
64686;SDS011;51113;53.646;-113.674;2023-07-02T01:13:05;2.58;;;1.13;;
64686;SDS011;51113;53.646;-113.674;2023-07-02T01:15:40;4.85;;;1.38;;
64686;SDS011;51113;53.646;-113.674;2023-07-02T01:18:11;1.63;;;1.10;;
64686;SDS011;51113;53.646;-113.674;2023-07-02T01:20:43;1.85;;;1.30;;
64686;SDS011;51113;53.646;-113.674;2023-07-02T01:23:12;2.33;;;1.20;;
64686;SDS011;51113;53.646;-113.674;2023-07-02T01:25:41;2.55;;;1.30;;
64686;SDS011;51113;53.646;-113.674;2023-07-02T01:28:09;1.27;;;1.00;;
64686;SDS011;51113;53.646;-113.674;2023-07-02T01:30:41;1.73;;;1.30;;
64686;SDS011;51113;53.646;-113.674;2023-07-02T01:33:10;4.35;;;1.30;;
64686;SDS011;51113;53.646;-113.674;2023-07-02T01:35:38;1.73;;;1.20;;
64686;SDS011;51113;53.646;-113.674;2023-07-02T01:38:07;1.70;;;1.00;;
64686;SDS011;51113;53.646;-113.674;2023-07-02T01:40:35;2.55;;;1.23;;
64686;SDS011;51113;53.646;-113.674;2023-07-02T01:43:04;3.05;;;1.60;;
64686;SDS011;51113;53.646;-113.674;2023-07-02T01:45:33;2.85;;;1.33;;
64686;SDS011;51113;53.646;-113.674;2023-07-02T01:48:01;3.20;;;1.48;;
64686;SDS011;51113;53.646;-113.674;2023-07-02T01:50:30;3.05;;;1.50;;
64686;SDS011;51113;53.646;-113.674;2023-07-02T01:52:59;1.80;;;1.10;;
64686;SDS011;51113;53.646;-113.674;2023-07-02T01:55:27;3.05;;;1.15;;
64686;SDS011;51113;53.646;-113.674;2023-07-02T01:57:56;1.67;;;1.20;;
64686;SDS011;51113;53.646;-113.674;2023-07-02T02:00:24;2.05;;;1.30;;
64686;SDS011;51113;53.646;-113.674;2023-07-02T02:02:53;2.53;;;1.30;;
64686;SDS011;51113;53.646;-113.674;2023-07-02T02:05:22;3.15;;;1.25;;
64686;SDS011;51113;53.646;-113.674;2023-07-02T02:07:50;2.65;;;1.30;;
64686;SDS011;51113;53.646;-113.674;2023-07-02T02:10:19;2.53;;;1.23;;
64686;SDS011;51113;53.646;-113.674;2023-07-02T02:12:48;5.35;;;1.30;;
64686;SDS011;51113;53.646;-113.674;2023-07-02T02:15:16;3.05;;;1.10;;
64686;SDS011;51113;53.646;-113.674;2023-07-02T02:17:45;7.72;;;1.40;;
64686;SDS011;51113;53.646;-113.674;2023-07-02T02:20:14;4.00;;;1.10;;
64686;SDS011;51113;53.646;-113.674;2023-07-02T02:22:43;1.73;;;1.10;;
64686;SDS011;51113;53.646;-113.674;2023-07-02T02:25:11;1.60;;;1.20;;
64686;SDS011;51113;53.646;-113.674;2023-07-02T02:27:39;1.75;;;1.17;;
64686;SDS011;51113;53.646;-113.674;2023-07-02T02:30:08;4.47;;;1.40;;
64686;SDS011;51113;53.646;-113.674;2023-07-02T02:32:37;2.47;;;1.40;;
64686;SDS011;51113;53.646;-113.674;2023-07-02T02:35:06;1.48;;;1.10;;
64686;SDS011;51113;53.646;-113.674;2023-07-02T02:37:36;2.30;;;1.20;;
64686;SDS011;51113;53.646;-113.674;2023-07-02T02:40:07;1.98;;;1.33;;
64686;SDS011;51113;53.646;-113.674;2023-07-02T02:42:39;1.53;;;1.10;;
64686;SDS011;51113;53.646;-113.674;2023-07-02T02:45:07;1.40;;;1.10;;
64686;SDS011;51113;53.646;-113.674;2023-07-02T02:47:36;1.30;;;1.00;;
64686;SDS011;51113;53.646;-113.674;2023-07-02T02:50:05;2.00;;;1.38;;
64686;SDS011;51113;53.646;-113.674;2023-07-02T02:52:34;3.10;;;1.42;;
64686;SDS011;51113;53.646;-113.674;2023-07-02T02:55:05;2.88;;;1.30;;
64686;SDS011;51113;53.646;-113.674;2023-07-02T02:57:34;2.47;;;1.20;;
64686;SDS011;51113;53.646;-113.674;2023-07-02T03:00:03;2.55;;;1.17;;
64686;SDS011;51113;53.646;-113.674;2023-07-02T03:02:32;2.67;;;1.30;;
64686;SDS011;51113;53.646;-113.674;2023-07-02T03:05:01;2.90;;;1.45;;
64686;SDS011;51113;53.646;-113.674;2023-07-02T03:07:31;3.67;;;1.30;;
64686;SDS011;51113;53.646;-113.674;2023-07-02T03:10:00;2.20;;;1.17;;
64686;SDS011;51113;53.646;-113.674;2023-07-02T03:12:28;2.38;;;1.40;;
64686;SDS011;51113;53.646;-113.674;2023-07-02T03:14:57;2.45;;;1.30;;
64686;SDS011;51113;53.646;-113.674;2023-07-02T03:17:26;2.13;;;1.48;;
64686;SDS011;51113;53.646;-113.674;2023-07-02T03:19:54;2.75;;;1.33;;
64686;SDS011;51113;53.646;-113.674;2023-07-02T03:22:23;2.83;;;1.30;;
64686;SDS011;51113;53.646;-113.674;2023-07-02T03:24:52;2.78;;;1.60;;
64686;SDS011;51113;53.646;-113.674;2023-07-02T03:27:20;9.52;;;1.65;;
64686;SDS011;51113;53.646;-113.674;2023-07-02T03:29:49;2.40;;;1.50;;
64686;SDS011;51113;53.646;-113.674;2023-07-02T03:32:19;2.03;;;1.45;;
64686;SDS011;51113;53.646;-113.674;2023-07-02T03:34:48;3.63;;;1.60;;
64686;SDS011;51113;53.646;-113.674;2023-07-02T03:37:17;2.33;;;1.60;;
64686;SDS011;51113;53.646;-113.674;2023-07-02T03:39:46;8.23;;;1.75;;
64686;SDS011;51113;53.646;-113.674;2023-07-02T03:42:15;2.50;;;1.50;;
64686;SDS011;51113;53.646;-113.674;2023-07-02T03:44:44;2.15;;;1.50;;
64686;SDS011;51113;53.646;-113.674;2023-07-02T03:47:12;3.50;;;1.33;;
64686;SDS011;51113;53.646;-113.674;2023-07-02T03:49:43;2.67;;;1.40;;
64686;SDS011;51113;53.646;-113.674;2023-07-02T03:52:12;2.38;;;1.45;;
64686;SDS011;51113;53.646;-113.674;2023-07-02T03:54:41;2.30;;;1.52;;
64686;SDS011;51113;53.646;-113.674;2023-07-02T03:57:09;2.83;;;1.70;;
64686;SDS011;51113;53.646;-113.674;2023-07-02T03:59:38;7.20;;;1.52;;
64686;SDS011;51113;53.646;-113.674;2023-07-02T04:02:07;3.20;;;1.88;;
64686;SDS011;51113;53.646;-113.674;2023-07-02T04:04:35;4.53;;;1.70;;
64686;SDS011;51113;53.646;-113.674;2023-07-02T04:07:04;3.22;;;1.50;;
64686;SDS011;51113;53.646;-113.674;2023-07-02T04:09:33;5.70;;;1.27;;
64686;SDS011;51113;53.646;-113.674;2023-07-02T04:12:01;3.33;;;1.50;;
64686;SDS011;51113;53.646;-113.674;2023-07-02T04:14:30;2.40;;;1.58;;
64686;SDS011;51113;53.646;-113.674;2023-07-02T04:17:00;2.47;;;1.73;;
64686;SDS011;51113;53.646;-113.674;2023-07-02T04:19:31;2.60;;;1.63;;
64686;SDS011;51113;53.646;-113.674;2023-07-02T04:22:00;2.45;;;1.67;;
64686;SDS011;51113;53.646;-113.674;2023-07-02T04:24:29;2.92;;;1.52;;
64686;SDS011;51113;53.646;-113.674;2023-07-02T04:26:58;2.40;;;1.38;;
64686;SDS011;51113;53.646;-113.674;2023-07-02T04:29:47;2.78;;;1.55;;
64686;SDS011;51113;53.646;-113.674;2023-07-02T04:32:17;2.50;;;1.63;;
64686;SDS011;51113;53.646;-113.674;2023-07-02T04:34:45;4.55;;;1.77;;
64686;SDS011;51113;53.646;-113.674;2023-07-02T04:37:14;3.35;;;1.80;;
64686;SDS011;51113;53.646;-113.674;2023-07-02T04:39:43;2.72;;;1.60;;
64686;SDS011;51113;53.646;-113.674;2023-07-02T04:42:11;2.22;;;1.60;;
64686;SDS011;51113;53.646;-113.674;2023-07-02T04:44:41;2.60;;;1.25;;
64686;SDS011;51113;53.646;-113.674;2023-07-02T04:47:10;2.28;;;1.60;;
64686;SDS011;51113;53.646;-113.674;2023-07-02T04:49:39;2.38;;;1.60;;
64686;SDS011;51113;53.646;-113.674;2023-07-02T04:52:08;2.35;;;1.48;;
64686;SDS011;51113;53.646;-113.674;2023-07-02T04:54:36;2.05;;;1.45;;
64686;SDS011;51113;53.646;-113.674;2023-07-02T04:57:05;4.60;;;1.40;;
64686;SDS011;51113;53.646;-113.674;2023-07-02T04:59:34;3.85;;;1.55;;
64686;SDS011;51113;53.646;-113.674;2023-07-02T05:02:02;2.15;;;1.45;;
64686;SDS011;51113;53.646;-113.674;2023-07-02T05:04:31;3.55;;;1.58;;
64686;SDS011;51113;53.646;-113.674;2023-07-02T05:07:00;2.45;;;1.73;;
64686;SDS011;51113;53.646;-113.674;2023-07-02T05:09:29;2.70;;;1.58;;
64686;SDS011;51113;53.646;-113.674;2023-07-02T05:11:57;2.00;;;1.40;;
64686;SDS011;51113;53.646;-113.674;2023-07-02T05:14:26;2.85;;;1.55;;
64686;SDS011;51113;53.646;-113.674;2023-07-02T05:16:55;4.90;;;1.65;;
64686;SDS011;51113;53.646;-113.674;2023-07-02T05:19:23;8.65;;;1.60;;
64686;SDS011;51113;53.646;-113.674;2023-07-02T05:21:52;5.30;;;1.70;;
64686;SDS011;51113;53.646;-113.674;2023-07-02T05:24:21;3.35;;;1.65;;
64686;SDS011;51113;53.646;-113.674;2023-07-02T05:26:49;2.47;;;1.65;;
64686;SDS011;51113;53.646;-113.674;2023-07-02T05:29:18;1.92;;;1.30;;
64686;SDS011;51113;53.646;-113.674;2023-07-02T05:31:47;4.80;;;1.80;;
64686;SDS011;51113;53.646;-113.674;2023-07-02T05:34:16;6.10;;;1.65;;
64686;SDS011;51113;53.646;-113.674;2023-07-02T05:36:44;4.25;;;1.80;;
64686;SDS011;51113;53.646;-113.674;2023-07-02T05:39:13;3.35;;;1.30;;
64686;SDS011;51113;53.646;-113.674;2023-07-02T05:41:42;3.47;;;1.40;;
64686;SDS011;51113;53.646;-113.674;2023-07-02T05:44:10;2.20;;;1.50;;
64686;SDS011;51113;53.646;-113.674;2023-07-02T05:46:39;5.65;;;1.52;;
64686;SDS011;51113;53.646;-113.674;2023-07-02T05:49:08;4.07;;;1.40;;
64686;SDS011;51113;53.646;-113.674;2023-07-02T05:51:36;4.43;;;1.83;;
64686;SDS011;51113;53.646;-113.674;2023-07-02T05:54:06;2.35;;;1.48;;
64686;SDS011;51113;53.646;-113.674;2023-07-02T05:56:35;3.15;;;1.50;;
64686;SDS011;51113;53.646;-113.674;2023-07-02T05:59:03;1.80;;;1.30;;
64686;SDS011;51113;53.646;-113.674;2023-07-02T06:01:32;4.07;;;1.40;;
64686;SDS011;51113;53.646;-113.674;2023-07-02T06:04:00;4.25;;;1.48;;
64686;SDS011;51113;53.646;-113.674;2023-07-02T06:06:29;3.25;;;1.60;;
64686;SDS011;51113;53.646;-113.674;2023-07-02T06:08:58;5.60;;;1.75;;
64686;SDS011;51113;53.646;-113.674;2023-07-02T06:11:27;2.25;;;1.58;;
64686;SDS011;51113;53.646;-113.674;2023-07-02T06:13:55;2.47;;;1.55;;
64686;SDS011;51113;53.646;-113.674;2023-07-02T06:16:24;2.67;;;1.52;;
64686;SDS011;51113;53.646;-113.674;2023-07-02T06:18:53;9.85;;;1.70;;
64686;SDS011;51113;53.646;-113.674;2023-07-02T06:21:22;2.63;;;1.33;;
64686;SDS011;51113;53.646;-113.674;2023-07-02T06:23:57;5.40;;;1.30;;
64686;SDS011;51113;53.646;-113.674;2023-07-02T06:26:26;2.03;;;1.23;;
64686;SDS011;51113;53.646;-113.674;2023-07-02T06:28:55;1.85;;;1.30;;
64686;SDS011;51113;53.646;-113.674;2023-07-02T06:31:24;2.20;;;1.40;;
64686;SDS011;51113;53.646;-113.674;2023-07-02T06:33:53;2.72;;;1.40;;
64686;SDS011;51113;53.646;-113.674;2023-07-02T06:36:22;3.22;;;1.55;;
64686;SDS011;51113;53.646;-113.674;2023-07-02T06:38:50;2.47;;;1.38;;
64686;SDS011;51113;53.646;-113.674;2023-07-02T06:41:19;2.78;;;1.20;;
64686;SDS011;51113;53.646;-113.674;2023-07-02T06:43:48;7.40;;;1.50;;
64686;SDS011;51113;53.646;-113.674;2023-07-02T06:46:17;3.60;;;1.50;;
64686;SDS011;51113;53.646;-113.674;2023-07-02T06:48:46;2.00;;;1.17;;
64686;SDS011;51113;53.646;-113.674;2023-07-02T06:51:14;1.85;;;1.25;;
64686;SDS011;51113;53.646;-113.674;2023-07-02T06:53:44;2.35;;;1.48;;
64686;SDS011;51113;53.646;-113.674;2023-07-02T06:56:12;1.73;;;1.20;;
64686;SDS011;51113;53.646;-113.674;2023-07-02T06:58:44;4.10;;;1.40;;
64686;SDS011;51113;53.646;-113.674;2023-07-02T07:01:12;2.03;;;1.35;;
64686;SDS011;51113;53.646;-113.674;2023-07-02T07:03:41;1.25;;;1.02;;
64686;SDS011;51113;53.646;-113.674;2023-07-02T07:06:11;2.35;;;1.08;;
64686;SDS011;51113;53.646;-113.674;2023-07-02T07:08:40;1.80;;;1.30;;
64686;SDS011;51113;53.646;-113.674;2023-07-02T07:11:08;1.50;;;0.98;;
64686;SDS011;51113;53.646;-113.674;2023-07-02T07:13:37;4.95;;;1.15;;
64686;SDS011;51113;53.646;-113.674;2023-07-02T07:16:06;1.05;;;0.90;;
64686;SDS011;51113;53.646;-113.674;2023-07-02T07:18:35;3.05;;;0.95;;
64686;SDS011;51113;53.646;-113.674;2023-07-02T07:21:04;4.75;;;1.10;;
64686;SDS011;51113;53.646;-113.674;2023-07-02T07:23:33;3.05;;;0.90;;
64686;SDS011;51113;53.646;-113.674;2023-07-02T07:26:01;2.55;;;0.82;;
64686;SDS011;51113;53.646;-113.674;2023-07-02T07:28:30;4.22;;;1.25;;
64686;SDS011;51113;53.646;-113.674;2023-07-02T07:30:59;2.38;;;0.80;;
64686;SDS011;51113;53.646;-113.674;2023-07-02T07:33:27;2.65;;;1.05;;
64686;SDS011;51113;53.646;-113.674;2023-07-02T07:35:56;2.42;;;1.00;;
64686;SDS011;51113;53.646;-113.674;2023-07-02T07:38:25;1.00;;;0.88;;
64686;SDS011;51113;53.646;-113.674;2023-07-02T07:40:54;1.45;;;0.93;;
64686;SDS011;51113;53.646;-113.674;2023-07-02T07:43:23;1.35;;;0.90;;
64686;SDS011;51113;53.646;-113.674;2023-07-02T07:45:51;1.58;;;1.10;;
64686;SDS011;51113;53.646;-113.674;2023-07-02T07:48:20;3.08;;;0.90;;
64686;SDS011;51113;53.646;-113.674;2023-07-02T07:50:49;1.35;;;1.00;;
64686;SDS011;51113;53.646;-113.674;2023-07-02T07:53:18;2.30;;;0.80;;
64686;SDS011;51113;53.646;-113.674;2023-07-02T07:55:46;1.05;;;0.90;;
64686;SDS011;51113;53.646;-113.674;2023-07-02T07:58:15;2.30;;;1.02;;
64686;SDS011;51113;53.646;-113.674;2023-07-02T08:00:44;1.38;;;0.95;;
64686;SDS011;51113;53.646;-113.674;2023-07-02T08:03:13;3.75;;;1.00;;
64686;SDS011;51113;53.646;-113.674;2023-07-02T08:05:42;1.40;;;0.90;;
64686;SDS011;51113;53.646;-113.674;2023-07-02T08:08:10;1.65;;;0.90;;
64686;SDS011;51113;53.646;-113.674;2023-07-02T08:10:39;4.40;;;1.05;;
64686;SDS011;51113;53.646;-113.674;2023-07-02T08:13:07;1.40;;;0.70;;
64686;SDS011;51113;53.646;-113.674;2023-07-02T08:15:37;1.92;;;0.93;;
64686;SDS011;51113;53.646;-113.674;2023-07-02T08:18:06;3.08;;;0.90;;
64686;SDS011;51113;53.646;-113.674;2023-07-02T08:20:37;1.23;;;0.90;;
64686;SDS011;51113;53.646;-113.674;2023-07-02T08:23:05;1.63;;;0.90;;
64686;SDS011;51113;53.646;-113.674;2023-07-02T08:25:34;1.55;;;1.10;;
64686;SDS011;51113;53.646;-113.674;2023-07-02T08:28:03;1.15;;;0.80;;
64686;SDS011;51113;53.646;-113.674;2023-07-02T08:30:31;5.25;;;0.90;;
64686;SDS011;51113;53.646;-113.674;2023-07-02T08:33:00;1.83;;;1.00;;
64686;SDS011;51113;53.646;-113.674;2023-07-02T08:35:29;1.05;;;0.93;;
64686;SDS011;51113;53.646;-113.674;2023-07-02T08:37:57;1.75;;;0.90;;
64686;SDS011;51113;53.646;-113.674;2023-07-02T08:40:26;0.85;;;0.82;;
64686;SDS011;51113;53.646;-113.674;2023-07-02T08:42:56;9.10;;;1.00;;
64686;SDS011;51113;53.646;-113.674;2023-07-02T08:45:27;3.33;;;0.77;;
64686;SDS011;51113;53.646;-113.674;2023-07-02T08:47:56;1.33;;;0.80;;
64686;SDS011;51113;53.646;-113.674;2023-07-02T08:50:25;1.25;;;0.75;;
64686;SDS011;51113;53.646;-113.674;2023-07-02T08:52:54;4.43;;;0.80;;
64686;SDS011;51113;53.646;-113.674;2023-07-02T08:55:23;2.33;;;1.02;;
64686;SDS011;51113;53.646;-113.674;2023-07-02T08:57:52;1.10;;;0.80;;
64686;SDS011;51113;53.646;-113.674;2023-07-02T09:00:22;1.15;;;0.75;;
64686;SDS011;51113;53.646;-113.674;2023-07-02T09:02:50;0.80;;;0.80;;
64686;SDS011;51113;53.646;-113.674;2023-07-02T09:05:19;1.60;;;1.00;;
64686;SDS011;51113;53.646;-113.674;2023-07-02T09:07:48;1.98;;;0.82;;
64686;SDS011;51113;53.646;-113.674;2023-07-02T09:10:27;1.00;;;0.80;;
64686;SDS011;51113;53.646;-113.674;2023-07-02T09:13:04;1.20;;;0.88;;
64686;SDS011;51113;53.646;-113.674;2023-07-02T09:15:40;0.80;;;0.70;;
64686;SDS011;51113;53.646;-113.674;2023-07-02T09:20:51;1.13;;;0.80;;
64686;SDS011;51113;53.646;-113.674;2023-07-02T09:23:21;4.15;;;0.90;;
64686;SDS011;51113;53.646;-113.674;2023-07-02T09:25:50;4.25;;;0.88;;
64686;SDS011;51113;53.646;-113.674;2023-07-02T09:28:20;1.05;;;0.88;;
64686;SDS011;51113;53.646;-113.674;2023-07-02T09:30:55;1.20;;;0.80;;
64686;SDS011;51113;53.646;-113.674;2023-07-02T09:33:28;0.85;;;0.80;;
64686;SDS011;51113;53.646;-113.674;2023-07-02T09:35:57;0.73;;;0.70;;
64686;SDS011;51113;53.646;-113.674;2023-07-02T09:38:25;0.82;;;0.80;;
64686;SDS011;51113;53.646;-113.674;2023-07-02T09:40:55;0.65;;;0.65;;
64686;SDS011;51113;53.646;-113.674;2023-07-02T09:43:24;0.98;;;0.70;;
64686;SDS011;51113;53.646;-113.674;2023-07-02T09:45:54;1.35;;;0.88;;
64686;SDS011;51113;53.646;-113.674;2023-07-02T09:48:24;1.65;;;0.70;;
64686;SDS011;51113;53.646;-113.674;2023-07-02T09:50:56;2.47;;;0.73;;
64686;SDS011;51113;53.646;-113.674;2023-07-02T09:53:27;1.30;;;0.80;;
64686;SDS011;51113;53.646;-113.674;2023-07-02T09:55:56;1.42;;;0.80;;
64686;SDS011;51113;53.646;-113.674;2023-07-02T09:58:25;1.58;;;0.70;;
64686;SDS011;51113;53.646;-113.674;2023-07-02T10:00:55;2.95;;;0.85;;
64686;SDS011;51113;53.646;-113.674;2023-07-02T10:03:30;0.88;;;0.77;;
64686;SDS011;51113;53.646;-113.674;2023-07-02T10:06:06;1.00;;;0.73;;
64686;SDS011;51113;53.646;-113.674;2023-07-02T10:08:35;1.40;;;0.60;;
64686;SDS011;51113;53.646;-113.674;2023-07-02T10:11:11;1.35;;;0.77;;
64686;SDS011;51113;53.646;-113.674;2023-07-02T10:13:40;3.03;;;0.63;;
64686;SDS011;51113;53.646;-113.674;2023-07-02T10:16:09;0.50;;;0.50;;
64686;SDS011;51113;53.646;-113.674;2023-07-02T10:18:38;0.60;;;0.60;;
64686;SDS011;51113;53.646;-113.674;2023-07-02T10:21:17;1.15;;;0.77;;
64686;SDS011;51113;53.646;-113.674;2023-07-02T10:23:46;2.90;;;0.77;;
64686;SDS011;51113;53.646;-113.674;2023-07-02T10:26:18;0.95;;;0.80;;
64686;SDS011;51113;53.646;-113.674;2023-07-02T10:28:59;0.60;;;0.60;;
64686;SDS011;51113;53.646;-113.674;2023-07-02T10:31:29;1.77;;;0.60;;
64686;SDS011;51113;53.646;-113.674;2023-07-02T10:33:58;1.38;;;0.60;;
64686;SDS011;51113;53.646;-113.674;2023-07-02T10:36:27;1.92;;;0.95;;
64686;SDS011;51113;53.646;-113.674;2023-07-02T10:39:00;0.80;;;0.60;;
64686;SDS011;51113;53.646;-113.674;2023-07-02T10:41:32;0.63;;;0.60;;
64686;SDS011;51113;53.646;-113.674;2023-07-02T10:44:08;0.95;;;0.70;;
64686;SDS011;51113;53.646;-113.674;2023-07-02T10:46:44;1.15;;;0.70;;
64686;SDS011;51113;53.646;-113.674;2023-07-02T10:49:16;0.85;;;0.60;;
64686;SDS011;51113;53.646;-113.674;2023-07-02T10:51:56;0.85;;;0.70;;
64686;SDS011;51113;53.646;-113.674;2023-07-02T10:54:25;1.90;;;0.82;;
64686;SDS011;51113;53.646;-113.674;2023-07-02T10:56:57;1.08;;;0.73;;
64686;SDS011;51113;53.646;-113.674;2023-07-02T10:59:26;0.90;;;0.70;;
64686;SDS011;51113;53.646;-113.674;2023-07-02T11:01:55;0.60;;;0.60;;
64686;SDS011;51113;53.646;-113.674;2023-07-02T11:04:32;0.60;;;0.60;;
64686;SDS011;51113;53.646;-113.674;2023-07-02T11:07:01;1.25;;;0.80;;
64686;SDS011;51113;53.646;-113.674;2023-07-02T11:09:30;0.70;;;0.52;;
64686;SDS011;51113;53.646;-113.674;2023-07-02T11:12:00;1.05;;;0.80;;
64686;SDS011;51113;53.646;-113.674;2023-07-02T11:14:32;0.60;;;0.60;;
64686;SDS011;51113;53.646;-113.674;2023-07-02T11:17:02;0.65;;;0.63;;
64686;SDS011;51113;53.646;-113.674;2023-07-02T11:19:33;0.52;;;0.52;;
64686;SDS011;51113;53.646;-113.674;2023-07-02T11:22:03;0.60;;;0.50;;
64686;SDS011;51113;53.646;-113.674;2023-07-02T11:24:32;0.65;;;0.60;;
64686;SDS011;51113;53.646;-113.674;2023-07-02T11:27:03;0.60;;;0.60;;
64686;SDS011;51113;53.646;-113.674;2023-07-02T11:29:33;4.18;;;0.88;;
64686;SDS011;51113;53.646;-113.674;2023-07-02T11:32:07;0.73;;;0.60;;
64686;SDS011;51113;53.646;-113.674;2023-07-02T11:34:39;0.77;;;0.60;;
64686;SDS011;51113;53.646;-113.674;2023-07-02T11:37:08;0.77;;;0.60;;
64686;SDS011;51113;53.646;-113.674;2023-07-02T11:39:36;0.77;;;0.70;;
64686;SDS011;51113;53.646;-113.674;2023-07-02T11:42:05;0.50;;;0.50;;
64686;SDS011;51113;53.646;-113.674;2023-07-02T11:44:34;1.00;;;0.80;;
64686;SDS011;51113;53.646;-113.674;2023-07-02T11:47:02;0.77;;;0.50;;
64686;SDS011;51113;53.646;-113.674;2023-07-02T11:49:32;0.73;;;0.60;;
64686;SDS011;51113;53.646;-113.674;2023-07-02T11:52:00;5.05;;;0.70;;
64686;SDS011;51113;53.646;-113.674;2023-07-02T11:54:29;0.60;;;0.60;;
64686;SDS011;51113;53.646;-113.674;2023-07-02T11:56:59;1.70;;;0.60;;
64686;SDS011;51113;53.646;-113.674;2023-07-02T11:59:27;0.60;;;0.60;;
64686;SDS011;51113;53.646;-113.674;2023-07-02T12:01:56;0.50;;;0.50;;
64686;SDS011;51113;53.646;-113.674;2023-07-02T12:04:24;0.50;;;0.50;;
64686;SDS011;51113;53.646;-113.674;2023-07-02T12:06:53;1.38;;;0.73;;
64686;SDS011;51113;53.646;-113.674;2023-07-02T12:09:22;0.55;;;0.55;;
64686;SDS011;51113;53.646;-113.674;2023-07-02T12:11:50;0.50;;;0.50;;
64686;SDS011;51113;53.646;-113.674;2023-07-02T12:14:19;0.82;;;0.60;;
64686;SDS011;51113;53.646;-113.674;2023-07-02T12:16:48;0.50;;;0.50;;
64686;SDS011;51113;53.646;-113.674;2023-07-02T12:19:16;0.77;;;0.63;;
64686;SDS011;51113;53.646;-113.674;2023-07-02T12:21:46;0.60;;;0.60;;
64686;SDS011;51113;53.646;-113.674;2023-07-02T12:24:13;11.52;;;1.13;;
64686;SDS011;51113;53.646;-113.674;2023-07-02T12:26:42;0.88;;;0.60;;
64686;SDS011;51113;53.646;-113.674;2023-07-02T12:29:11;0.50;;;0.50;;
64686;SDS011;51113;53.646;-113.674;2023-07-02T12:31:39;2.38;;;0.77;;
64686;SDS011;51113;53.646;-113.674;2023-07-02T12:34:08;0.80;;;0.50;;
64686;SDS011;51113;53.646;-113.674;2023-07-02T12:36:37;0.80;;;0.63;;
64686;SDS011;51113;53.646;-113.674;2023-07-02T12:39:05;1.00;;;0.70;;
64686;SDS011;51113;53.646;-113.674;2023-07-02T12:41:34;0.60;;;0.60;;
64686;SDS011;51113;53.646;-113.674;2023-07-02T12:44:02;0.60;;;0.60;;
64686;SDS011;51113;53.646;-113.674;2023-07-02T12:46:31;0.90;;;0.70;;
64686;SDS011;51113;53.646;-113.674;2023-07-02T12:49:00;1.60;;;0.55;;
64686;SDS011;51113;53.646;-113.674;2023-07-02T12:51:28;2.10;;;0.80;;
64686;SDS011;51113;53.646;-113.674;2023-07-02T12:53:57;3.53;;;0.70;;
64686;SDS011;51113;53.646;-113.674;2023-07-02T12:56:26;0.85;;;0.70;;
64686;SDS011;51113;53.646;-113.674;2023-07-02T12:58:54;5.18;;;0.90;;
64686;SDS011;51113;53.646;-113.674;2023-07-02T13:01:23;0.80;;;0.70;;
64686;SDS011;51113;53.646;-113.674;2023-07-02T13:03:52;1.08;;;0.60;;
64686;SDS011;51113;53.646;-113.674;2023-07-02T13:06:21;1.50;;;0.85;;
64686;SDS011;51113;53.646;-113.674;2023-07-02T13:08:50;3.90;;;0.80;;
64686;SDS011;51113;53.646;-113.674;2023-07-02T13:11:18;6.00;;;1.02;;
64686;SDS011;51113;53.646;-113.674;2023-07-02T13:13:47;3.30;;;1.20;;
64686;SDS011;51113;53.646;-113.674;2023-07-02T13:16:16;1.58;;;1.00;;
64686;SDS011;51113;53.646;-113.674;2023-07-02T13:18:44;2.38;;;1.20;;
64686;SDS011;51113;53.646;-113.674;2023-07-02T13:21:13;1.33;;;0.88;;
64686;SDS011;51113;53.646;-113.674;2023-07-02T13:23:45;1.42;;;1.08;;
64686;SDS011;51113;53.646;-113.674;2023-07-02T13:26:13;2.00;;;1.05;;
64686;SDS011;51113;53.646;-113.674;2023-07-02T13:28:42;1.73;;;1.00;;
64686;SDS011;51113;53.646;-113.674;2023-07-02T13:31:11;1.60;;;1.10;;
64686;SDS011;51113;53.646;-113.674;2023-07-02T13:33:39;1.90;;;0.90;;
64686;SDS011;51113;53.646;-113.674;2023-07-02T13:36:09;1.48;;;1.10;;
64686;SDS011;51113;53.646;-113.674;2023-07-02T13:38:37;2.33;;;1.45;;
64686;SDS011;51113;53.646;-113.674;2023-07-02T13:41:06;1.48;;;1.05;;
64686;SDS011;51113;53.646;-113.674;2023-07-02T13:43:35;6.82;;;1.40;;
64686;SDS011;51113;53.646;-113.674;2023-07-02T13:46:03;2.38;;;1.23;;
64686;SDS011;51113;53.646;-113.674;2023-07-02T13:48:32;4.72;;;1.30;;
64686;SDS011;51113;53.646;-113.674;2023-07-02T13:51:02;6.30;;;1.30;;
64686;SDS011;51113;53.646;-113.674;2023-07-02T13:53:31;2.40;;;1.40;;
64686;SDS011;51113;53.646;-113.674;2023-07-02T13:56:00;3.08;;;1.55;;
64686;SDS011;51113;53.646;-113.674;2023-07-02T13:58:58;2.67;;;1.50;;
64686;SDS011;51113;53.646;-113.674;2023-07-02T14:01:28;5.88;;;1.33;;
64686;SDS011;51113;53.646;-113.674;2023-07-02T14:03:57;3.08;;;1.55;;
64686;SDS011;51113;53.646;-113.674;2023-07-02T14:06:25;4.35;;;1.70;;
64686;SDS011;51113;53.646;-113.674;2023-07-02T14:08:54;2.55;;;1.42;;
64686;SDS011;51113;53.646;-113.674;2023-07-02T14:11:23;5.57;;;1.40;;
64686;SDS011;51113;53.646;-113.674;2023-07-02T14:13:53;4.93;;;1.30;;
64686;SDS011;51113;53.646;-113.674;2023-07-02T14:16:22;2.38;;;1.30;;
64686;SDS011;51113;53.646;-113.674;2023-07-02T14:18:52;6.57;;;1.40;;
64686;SDS011;51113;53.646;-113.674;2023-07-02T14:21:21;2.78;;;1.50;;
64686;SDS011;51113;53.646;-113.674;2023-07-02T14:23:49;2.53;;;1.50;;